EZY67EC EGKK-LGSA
Flight info
| Callsign | EZY67EC |
|---|---|
| Flight time | 3h 29m |
| Altitude | 35000 |
| Route | SFD Y47 BENBO L612 XAMAB UL612 VEULE DCT TEPRI DCT POGZI DCT GELTA DCT LUVAL DCT BEGAR DCT TRA DCT GAMSA DCT GEDSO DCT VEKEN/N0436F370 DCT DARZA DCT GLOMY DCT PETAK DCT DIMIS UL604 PLH |
| Aircraft | A320/M-SDE2E3FGHIRWXY/LB1 |
Departure
| Time | 2026-05-08 10:31 |
|---|---|
| Airport | London Gatwick Airport (EGKK) |
Arrival
| Time | 2026-05-08 14:00 |
|---|---|
| Airport | Chania International Airport (LGSA) |
| Time | Latitude | Longitude | Altitude | Speed | Heading |
|---|---|---|---|---|---|
| 2026-05-08 10:01 | 51.15821 | -0.17689 | 204 ft | 0 kts | 347° |
| 2026-05-08 10:15 | 51.15808 | -0.17685 | 212 ft | 3 kts | 347° |
| 2026-05-08 10:15 | 51.15786 | -0.17677 | 214 ft | 3 kts | 347° |
| 2026-05-08 10:15 | 51.15768 | -0.17671 | 214 ft | 3 kts | 346° |
| 2026-05-08 10:16 | 51.15748 | -0.17658 | 216 ft | 3 kts | 307° |
| 2026-05-08 10:16 | 51.15744 | -0.17633 | 216 ft | 3 kts | 258° |
| 2026-05-08 10:16 | 51.15747 | -0.17606 | 209 ft | 0 kts | 258° |
| 2026-05-08 10:18 | 51.15747 | -0.17609 | 209 ft | 1 kts | 258° |
| 2026-05-08 10:18 | 51.15740 | -0.17658 | 216 ft | 8 kts | 258° |
| 2026-05-08 10:18 | 51.15724 | -0.17778 | 203 ft | 13 kts | 257° |
| 2026-05-08 10:19 | 51.15704 | -0.17918 | 210 ft | 13 kts | 258° |
| 2026-05-08 10:19 | 51.15684 | -0.18067 | 205 ft | 14 kts | 257° |
| 2026-05-08 10:19 | 51.15663 | -0.18221 | 208 ft | 14 kts | 258° |
| 2026-05-08 10:20 | 51.15629 | -0.18466 | 211 ft | 13 kts | 257° |
| 2026-05-08 10:20 | 51.15610 | -0.18602 | 203 ft | 12 kts | 257° |
| 2026-05-08 10:20 | 51.15593 | -0.18727 | 203 ft | 11 kts | 257° |
| 2026-05-08 10:20 | 51.15562 | -0.18821 | 205 ft | 10 kts | 200° |
| 2026-05-08 10:21 | 51.15504 | -0.18811 | 208 ft | 8 kts | 167° |
| 2026-05-08 10:21 | 51.15456 | -0.18794 | 208 ft | 3 kts | 168° |
| 2026-05-08 10:21 | 51.15416 | -0.18781 | 203 ft | 8 kts | 168° |
| 2026-05-08 10:21 | 51.15383 | -0.18770 | 210 ft | 4 kts | 167° |
| 2026-05-08 10:22 | 51.15333 | -0.18751 | 207 ft | 11 kts | 167° |
| 2026-05-08 10:22 | 51.15254 | -0.18724 | 204 ft | 11 kts | 168° |
| 2026-05-08 10:22 | 51.15188 | -0.18702 | 213 ft | 11 kts | 169° |
| 2026-05-08 10:22 | 51.15125 | -0.18770 | 209 ft | 13 kts | 259° |
| 2026-05-08 10:23 | 51.15108 | -0.18896 | 208 ft | 11 kts | 257° |
| 2026-05-08 10:23 | 51.15093 | -0.19000 | 208 ft | 9 kts | 257° |
| 2026-05-08 10:23 | 51.15083 | -0.19080 | 209 ft | 7 kts | 259° |
| 2026-05-08 10:23 | 51.15075 | -0.19144 | 206 ft | 6 kts | 259° |
| 2026-05-08 10:24 | 51.15052 | -0.19255 | 211 ft | 13 kts | 227° |
| 2026-05-08 10:24 | 51.14970 | -0.19279 | 206 ft | 12 kts | 215° |
| 2026-05-08 10:24 | 51.14945 | -0.19412 | 206 ft | 13 kts | 258° |
| 2026-05-08 10:24 | 51.14923 | -0.19572 | 208 ft | 16 kts | 258° |
| 2026-05-08 10:25 | 51.14897 | -0.19751 | 212 ft | 18 kts | 257° |
| 2026-05-08 10:25 | 51.14868 | -0.19962 | 207 ft | 21 kts | 257° |
| 2026-05-08 10:25 | 51.14835 | -0.20208 | 205 ft | 25 kts | 258° |
| 2026-05-08 10:25 | 51.14806 | -0.20423 | 205 ft | 17 kts | 258° |
| 2026-05-08 10:26 | 51.14780 | -0.20610 | 209 ft | 18 kts | 258° |
| 2026-05-08 10:26 | 51.14750 | -0.20821 | 211 ft | 21 kts | 257° |
| 2026-05-08 10:26 | 51.14718 | -0.21053 | 204 ft | 20 kts | 257° |
| 2026-05-08 10:26 | 51.14702 | -0.21169 | 204 ft | 6 kts | 258° |
| 2026-05-08 10:27 | 51.14698 | -0.21202 | 214 ft | 0 kts | 258° |
| 2026-05-08 10:28 | 51.14696 | -0.21213 | 211 ft | 3 kts | 258° |
| 2026-05-08 10:28 | 51.14689 | -0.21263 | 208 ft | 5 kts | 258° |
| 2026-05-08 10:29 | 51.14679 | -0.21317 | 206 ft | 5 kts | 235° |
| 2026-05-08 10:29 | 51.14647 | -0.21337 | 204 ft | 7 kts | 176° |
| 2026-05-08 10:29 | 51.14570 | -0.21308 | 205 ft | 14 kts | 164° |
| 2026-05-08 10:29 | 51.14518 | -0.21186 | 204 ft | 12 kts | 85° |
| 2026-05-08 10:30 | 51.14537 | -0.21042 | 203 ft | 20 kts | 76° |
| 2026-05-08 10:30 | 51.14613 | -0.20486 | 216 ft | 85 kts | 77° |
| 2026-05-08 10:30 | 51.14782 | -0.19260 | 205 ft | 140 kts | 78° |
| 2026-05-08 10:30 | 51.15020 | -0.17561 | 454 ft | 161 kts | 78° |
| 2026-05-08 10:31 | 51.15265 | -0.15824 | 1186 ft | 161 kts | 80° |
| 2026-05-08 10:31 | 51.15513 | -0.13988 | 1596 ft | 180 kts | 81° |
| 2026-05-08 10:31 | 51.15775 | -0.11961 | 1982 ft | 198 kts | 81° |
| 2026-05-08 10:31 | 51.16061 | -0.09691 | 2309 ft | 221 kts | 83° |
| 2026-05-08 10:32 | 51.15924 | -0.07286 | 3018 ft | 221 kts | 117° |
| 2026-05-08 10:32 | 51.14907 | -0.05453 | 3538 ft | 233 kts | 153° |
| 2026-05-08 10:32 | 51.13310 | -0.04611 | 4024 ft | 249 kts | 166° |
| 2026-05-08 10:32 | 51.11603 | -0.04031 | 4850 ft | 252 kts | 169° |
| 2026-05-08 10:33 | 51.09855 | -0.03506 | 5331 ft | 255 kts | 170° |
| 2026-05-08 10:33 | 51.08121 | -0.02890 | 5709 ft | 256 kts | 166° |
| 2026-05-08 10:33 | 51.06397 | -0.02141 | 5970 ft | 258 kts | 165° |
| 2026-05-08 10:33 | 51.04676 | -0.01336 | 6004 ft | 258 kts | 164° |
| 2026-05-08 10:34 | 51.02957 | -0.00511 | 6000 ft | 259 kts | 164° |
| 2026-05-08 10:34 | 51.01230 | 0.00324 | 5970 ft | 261 kts | 164° |
| 2026-05-08 10:34 | 50.99488 | 0.01165 | 5975 ft | 262 kts | 164° |
| 2026-05-08 10:34 | 50.97745 | 0.02001 | 5988 ft | 262 kts | 164° |
| 2026-05-08 10:35 | 50.96002 | 0.02831 | 5985 ft | 262 kts | 164° |
| 2026-05-08 10:35 | 50.94249 | 0.03660 | 6138 ft | 265 kts | 164° |
| 2026-05-08 10:35 | 50.92478 | 0.04491 | 6987 ft | 265 kts | 165° |
| 2026-05-08 10:35 | 50.92082 | 0.04677 | 7177 ft | 266 kts | 165° |
| 2026-05-08 10:36 | 50.90458 | 0.05439 | 7895 ft | 268 kts | 165° |
| 2026-05-08 10:36 | 50.88657 | 0.06282 | 8660 ft | 272 kts | 165° |
| 2026-05-08 10:36 | 50.86831 | 0.07142 | 9402 ft | 277 kts | 165° |
| 2026-05-08 10:36 | 50.84968 | 0.08017 | 10103 ft | 281 kts | 165° |
| 2026-05-08 10:37 | 50.83082 | 0.08901 | 10778 ft | 285 kts | 165° |
| 2026-05-08 10:37 | 50.81194 | 0.09782 | 11436 ft | 288 kts | 166° |
| 2026-05-08 10:37 | 50.79263 | 0.10684 | 12123 ft | 291 kts | 166° |
| 2026-05-08 10:37 | 50.77300 | 0.11528 | 12795 ft | 293 kts | 172° |
| 2026-05-08 10:38 | 50.75233 | 0.11735 | 13352 ft | 300 kts | 185° |
| 2026-05-08 10:38 | 50.73153 | 0.11168 | 13488 ft | 319 kts | 195° |
| 2026-05-08 10:38 | 50.70936 | 0.10342 | 13734 ft | 335 kts | 194° |
| 2026-05-08 10:38 | 50.68644 | 0.09495 | 14224 ft | 342 kts | 194° |
| 2026-05-08 10:39 | 50.66316 | 0.08645 | 14767 ft | 345 kts | 194° |
| 2026-05-08 10:39 | 50.63962 | 0.07793 | 15364 ft | 348 kts | 194° |
| 2026-05-08 10:39 | 50.61591 | 0.06938 | 15914 ft | 352 kts | 193° |
| 2026-05-08 10:39 | 50.59193 | 0.06072 | 16484 ft | 355 kts | 193° |
| 2026-05-08 10:40 | 50.56780 | 0.05200 | 17068 ft | 357 kts | 193° |
| 2026-05-08 10:40 | 50.54349 | 0.04326 | 17648 ft | 360 kts | 193° |
| 2026-05-08 10:40 | 50.51900 | 0.03449 | 18226 ft | 362 kts | 193° |
| 2026-05-08 10:40 | 50.49428 | 0.02599 | 18731 ft | 365 kts | 189° |
| 2026-05-08 10:41 | 50.46884 | 0.02351 | 19217 ft | 369 kts | 178° |
| 2026-05-08 10:41 | 50.44335 | 0.02974 | 19703 ft | 373 kts | 165° |
| 2026-05-08 10:41 | 50.41910 | 0.04470 | 20190 ft | 378 kts | 153° |
| 2026-05-08 10:41 | 50.39676 | 0.06673 | 20675 ft | 381 kts | 148° |
| 2026-05-08 10:42 | 50.37457 | 0.08979 | 21170 ft | 384 kts | 148° |
| 2026-05-08 10:42 | 50.35221 | 0.11289 | 21668 ft | 386 kts | 148° |
| 2026-05-08 10:42 | 50.32971 | 0.13606 | 22149 ft | 389 kts | 148° |
| 2026-05-08 10:42 | 50.30701 | 0.15940 | 22637 ft | 391 kts | 148° |
| 2026-05-08 10:43 | 50.28418 | 0.18285 | 23109 ft | 394 kts | 148° |
| 2026-05-08 10:43 | 50.26123 | 0.20641 | 23567 ft | 396 kts | 148° |
| 2026-05-08 10:43 | 50.23810 | 0.23010 | 23952 ft | 399 kts | 148° |
| 2026-05-08 10:43 | 50.21483 | 0.25391 | 24299 ft | 402 kts | 148° |
| 2026-05-08 10:44 | 50.19166 | 0.27763 | 24600 ft | 405 kts | 148° |
| 2026-05-08 10:44 | 50.16799 | 0.30199 | 24892 ft | 409 kts | 148° |
| 2026-05-08 10:44 | 50.14414 | 0.32655 | 25184 ft | 413 kts | 148° |
| 2026-05-08 10:44 | 50.12005 | 0.35136 | 25478 ft | 417 kts | 148° |
| 2026-05-08 10:45 | 50.09574 | 0.37634 | 25765 ft | 420 kts | 148° |
| 2026-05-08 10:45 | 50.07122 | 0.40144 | 26047 ft | 424 kts | 148° |
| 2026-05-08 10:45 | 50.04649 | 0.42674 | 26320 ft | 427 kts | 148° |
| 2026-05-08 10:45 | 50.02153 | 0.45224 | 26587 ft | 430 kts | 148° |
| 2026-05-08 10:46 | 49.99650 | 0.47778 | 26966 ft | 430 kts | 148° |
| 2026-05-08 10:46 | 49.97150 | 0.50325 | 27364 ft | 430 kts | 148° |
| 2026-05-08 10:46 | 49.94632 | 0.52889 | 27600 ft | 434 kts | 148° |
| 2026-05-08 10:46 | 49.92105 | 0.55454 | 27828 ft | 438 kts | 149° |
| 2026-05-08 10:47 | 49.89543 | 0.58052 | 28077 ft | 441 kts | 148° |
| 2026-05-08 10:47 | 49.86979 | 0.60697 | 28331 ft | 445 kts | 145° |
| 2026-05-08 10:47 | 49.84618 | 0.63814 | 28592 ft | 449 kts | 136° |
| 2026-05-08 10:47 | 49.82492 | 0.67398 | 28844 ft | 453 kts | 133° |
| 2026-05-08 10:48 | 49.80375 | 0.71017 | 29099 ft | 455 kts | 134° |
| 2026-05-08 10:48 | 49.78234 | 0.74650 | 29334 ft | 458 kts | 134° |
| 2026-05-08 10:48 | 49.76079 | 0.78294 | 29572 ft | 460 kts | 134° |
| 2026-05-08 10:48 | 49.73909 | 0.81953 | 29795 ft | 463 kts | 134° |
| 2026-05-08 10:49 | 49.71720 | 0.85639 | 29952 ft | 467 kts | 134° |
| 2026-05-08 10:49 | 49.69511 | 0.89357 | 30114 ft | 471 kts | 134° |
| 2026-05-08 10:49 | 49.67297 | 0.93080 | 30414 ft | 469 kts | 134° |
| 2026-05-08 10:49 | 49.65097 | 0.96780 | 30790 ft | 466 kts | 134° |
| 2026-05-08 10:50 | 49.62909 | 1.00454 | 31114 ft | 465 kts | 134° |
| 2026-05-08 10:50 | 49.60723 | 1.04121 | 31375 ft | 465 kts | 134° |
| 2026-05-08 10:50 | 49.58537 | 1.07791 | 31625 ft | 465 kts | 134° |
| 2026-05-08 10:50 | 49.56348 | 1.11455 | 31871 ft | 465 kts | 134° |
| 2026-05-08 10:51 | 49.54150 | 1.15116 | 32112 ft | 466 kts | 135° |
| 2026-05-08 10:51 | 49.51944 | 1.18776 | 32351 ft | 466 kts | 135° |
| 2026-05-08 10:51 | 49.49736 | 1.22439 | 32480 ft | 469 kts | 135° |
| 2026-05-08 10:51 | 49.47538 | 1.26086 | 32642 ft | 472 kts | 135° |
| 2026-05-08 10:52 | 49.45308 | 1.29784 | 32849 ft | 473 kts | 135° |
| 2026-05-08 10:52 | 49.43068 | 1.33497 | 33085 ft | 473 kts | 134° |
| 2026-05-08 10:52 | 49.40838 | 1.37194 | 33437 ft | 470 kts | 135° |
| 2026-05-08 10:52 | 49.38626 | 1.40863 | 33820 ft | 467 kts | 135° |
| 2026-05-08 10:53 | 49.36415 | 1.44516 | 34103 ft | 467 kts | 135° |
| 2026-05-08 10:53 | 49.34200 | 1.48164 | 34298 ft | 467 kts | 135° |
| 2026-05-08 10:53 | 49.31986 | 1.51795 | 34511 ft | 466 kts | 135° |
| 2026-05-08 10:53 | 49.29771 | 1.55421 | 34724 ft | 466 kts | 135° |
| 2026-05-08 10:54 | 49.27558 | 1.59049 | 34887 ft | 466 kts | 135° |
| 2026-05-08 10:54 | 49.25346 | 1.62678 | 35031 ft | 467 kts | 135° |
| 2026-05-08 10:54 | 49.23139 | 1.66301 | 35064 ft | 464 kts | 135° |
| 2026-05-08 10:55 | 49.18745 | 1.73486 | 35061 ft | 462 kts | 135° |
| 2026-05-08 10:55 | 49.14354 | 1.80639 | 35071 ft | 459 kts | 135° |
| 2026-05-08 10:56 | 49.09987 | 1.87718 | 35081 ft | 457 kts | 136° |
| 2026-05-08 10:56 | 49.05621 | 1.94779 | 35057 ft | 458 kts | 135° |
| 2026-05-08 10:57 | 49.01266 | 2.01823 | 35048 ft | 461 kts | 135° |
| 2026-05-08 10:57 | 48.94708 | 2.12372 | 35046 ft | 464 kts | 135° |
| 2026-05-08 10:58 | 48.90258 | 2.19503 | 35068 ft | 465 kts | 135° |
| 2026-05-08 10:58 | 48.85798 | 2.26633 | 35081 ft | 465 kts | 136° |
| 2026-05-08 10:59 | 48.81338 | 2.33729 | 35091 ft | 464 kts | 136° |
| 2026-05-08 10:59 | 48.76881 | 2.40824 | 35093 ft | 464 kts | 135° |
| 2026-05-08 11:00 | 48.72426 | 2.47898 | 35091 ft | 464 kts | 136° |
| 2026-05-08 11:00 | 48.67991 | 2.54904 | 35089 ft | 464 kts | 136° |
| 2026-05-08 11:01 | 48.63523 | 2.61943 | 35098 ft | 464 kts | 136° |
| 2026-05-08 11:01 | 48.59111 | 2.69039 | 35091 ft | 464 kts | 130° |
| 2026-05-08 11:02 | 48.55137 | 2.82249 | 35066 ft | 467 kts | 99° |
| 2026-05-08 11:03 | 48.54682 | 2.92005 | 35060 ft | 466 kts | 92° |
| 2026-05-08 11:03 | 48.54358 | 3.01784 | 35058 ft | 467 kts | 92° |
| 2026-05-08 11:04 | 48.54012 | 3.11570 | 35066 ft | 467 kts | 93° |
| 2026-05-08 11:04 | 48.53666 | 3.21348 | 35072 ft | 467 kts | 93° |
| 2026-05-08 11:05 | 48.53306 | 3.31125 | 35077 ft | 466 kts | 93° |
| 2026-05-08 11:05 | 48.52940 | 3.40890 | 35077 ft | 466 kts | 93° |
| 2026-05-08 11:06 | 48.52570 | 3.50653 | 35072 ft | 466 kts | 94° |
| 2026-05-08 11:06 | 48.52190 | 3.60398 | 35075 ft | 465 kts | 94° |
| 2026-05-08 11:07 | 48.51806 | 3.70122 | 35080 ft | 464 kts | 94° |
| 2026-05-08 11:07 | 48.51413 | 3.79846 | 35085 ft | 464 kts | 94° |
| 2026-05-08 11:08 | 48.51016 | 3.89552 | 35093 ft | 464 kts | 94° |
| 2026-05-08 11:08 | 48.50604 | 3.99205 | 35085 ft | 464 kts | 95° |
| 2026-05-08 11:09 | 48.49589 | 4.07160 | 35087 ft | 462 kts | 106° |
| 2026-05-08 11:09 | 48.47605 | 4.18015 | 35081 ft | 462 kts | 106° |
| 2026-05-08 11:10 | 48.45904 | 4.27351 | 35079 ft | 462 kts | 106° |
| 2026-05-08 11:10 | 48.44472 | 4.35167 | 35074 ft | 462 kts | 107° |
| 2026-05-08 11:11 | 48.42766 | 4.44421 | 35073 ft | 461 kts | 107° |
| 2026-05-08 11:11 | 48.41046 | 4.53707 | 35073 ft | 461 kts | 107° |
| 2026-05-08 11:12 | 48.39317 | 4.62978 | 35073 ft | 460 kts | 107° |
| 2026-05-08 11:12 | 48.37577 | 4.72237 | 35065 ft | 460 kts | 107° |
| 2026-05-08 11:13 | 48.35832 | 4.81488 | 35068 ft | 459 kts | 107° |
| 2026-05-08 11:13 | 48.34090 | 4.90721 | 35072 ft | 459 kts | 107° |
| 2026-05-08 11:14 | 48.32339 | 4.99942 | 35056 ft | 459 kts | 107° |
| 2026-05-08 11:14 | 48.30579 | 5.09156 | 35057 ft | 459 kts | 107° |
| 2026-05-08 11:15 | 48.28847 | 5.18378 | 35057 ft | 459 kts | 105° |
| 2026-05-08 11:15 | 48.27419 | 5.27714 | 35072 ft | 459 kts | 102° |
| 2026-05-08 11:16 | 48.26141 | 5.37087 | 35071 ft | 458 kts | 102° |
| 2026-05-08 11:16 | 48.24808 | 5.46437 | 35065 ft | 458 kts | 103° |
| 2026-05-08 11:17 | 48.23399 | 5.55751 | 35062 ft | 458 kts | 104° |
| 2026-05-08 11:17 | 48.21968 | 5.65046 | 35068 ft | 457 kts | 104° |
| 2026-05-08 11:18 | 48.20550 | 5.74318 | 35075 ft | 456 kts | 104° |
| 2026-05-08 11:18 | 48.19147 | 5.83517 | 35073 ft | 456 kts | 104° |
| 2026-05-08 11:19 | 48.17733 | 5.92775 | 35064 ft | 455 kts | 104° |
| 2026-05-08 11:19 | 48.16302 | 6.02018 | 35063 ft | 455 kts | 104° |
| 2026-05-08 11:20 | 48.14867 | 6.11225 | 35075 ft | 454 kts | 105° |
| 2026-05-08 11:20 | 48.13424 | 6.20417 | 35074 ft | 453 kts | 105° |
| 2026-05-08 11:21 | 48.11973 | 6.29587 | 35074 ft | 452 kts | 105° |
| 2026-05-08 11:21 | 48.10522 | 6.38742 | 35070 ft | 452 kts | 105° |
| 2026-05-08 11:22 | 48.09063 | 6.47885 | 35067 ft | 451 kts | 105° |
| 2026-05-08 11:22 | 48.07604 | 6.57005 | 35063 ft | 451 kts | 105° |
| 2026-05-08 11:23 | 48.06143 | 6.66109 | 35065 ft | 450 kts | 105° |
| 2026-05-08 11:23 | 48.04669 | 6.75202 | 35060 ft | 450 kts | 105° |
| 2026-05-08 11:24 | 48.03192 | 6.84276 | 35053 ft | 449 kts | 105° |
| 2026-05-08 11:24 | 48.01705 | 6.93342 | 35058 ft | 449 kts | 105° |
| 2026-05-08 11:25 | 48.00216 | 7.02389 | 35059 ft | 449 kts | 105° |
| 2026-05-08 11:25 | 47.98718 | 7.11442 | 35060 ft | 449 kts | 105° |
| 2026-05-08 11:26 | 47.97217 | 7.20483 | 35066 ft | 449 kts | 106° |
| 2026-05-08 11:26 | 47.95708 | 7.29523 | 35058 ft | 449 kts | 106° |
| 2026-05-08 11:27 | 47.94186 | 7.38568 | 35057 ft | 450 kts | 106° |
| 2026-05-08 11:27 | 47.92652 | 7.47622 | 35061 ft | 450 kts | 106° |
| 2026-05-08 11:28 | 47.91118 | 7.56637 | 35050 ft | 450 kts | 107° |
| 2026-05-08 11:28 | 47.89045 | 7.65412 | 35044 ft | 448 kts | 113° |
| 2026-05-08 11:29 | 47.86868 | 7.74022 | 35038 ft | 449 kts | 113° |
| 2026-05-08 11:29 | 47.84657 | 7.82755 | 35043 ft | 449 kts | 113° |
| 2026-05-08 11:30 | 47.82458 | 7.91397 | 35046 ft | 450 kts | 113° |
| 2026-05-08 11:30 | 47.80250 | 8.00021 | 35051 ft | 450 kts | 113° |
| 2026-05-08 11:31 | 47.78038 | 8.08626 | 35050 ft | 450 kts | 113° |
| 2026-05-08 11:31 | 47.75804 | 8.17303 | 35055 ft | 450 kts | 113° |
| 2026-05-08 11:32 | 47.73580 | 8.25926 | 35057 ft | 450 kts | 113° |
| 2026-05-08 11:32 | 47.71330 | 8.34584 | 35056 ft | 449 kts | 114° |
| 2026-05-08 11:33 | 47.69063 | 8.43241 | 35038 ft | 449 kts | 114° |
| 2026-05-08 11:33 | 47.67040 | 8.51580 | 35038 ft | 451 kts | 111° |
| 2026-05-08 11:34 | 47.65119 | 8.60376 | 35043 ft | 451 kts | 110° |
| 2026-05-08 11:34 | 47.63192 | 8.69195 | 35046 ft | 451 kts | 111° |
| 2026-05-08 11:35 | 47.61195 | 8.78000 | 35044 ft | 451 kts | 111° |
| 2026-05-08 11:35 | 47.59169 | 8.86773 | 35039 ft | 451 kts | 112° |
| 2026-05-08 11:36 | 47.57136 | 8.95569 | 35049 ft | 452 kts | 112° |
| 2026-05-08 11:36 | 47.55121 | 9.04307 | 35053 ft | 452 kts | 112° |
| 2026-05-08 11:37 | 47.53087 | 9.13105 | 35061 ft | 452 kts | 112° |
| 2026-05-08 11:37 | 47.51049 | 9.21887 | 35048 ft | 452 kts | 112° |
| 2026-05-08 11:38 | 47.48992 | 9.30671 | 35055 ft | 452 kts | 113° |
| 2026-05-08 11:38 | 47.46929 | 9.39452 | 35069 ft | 452 kts | 113° |
| 2026-05-08 11:39 | 47.44860 | 9.48236 | 35069 ft | 453 kts | 113° |
| 2026-05-08 11:39 | 47.42777 | 9.57015 | 35074 ft | 453 kts | 113° |
| 2026-05-08 11:40 | 47.40764 | 9.65832 | 35063 ft | 456 kts | 107° |
| 2026-05-08 11:40 | 47.39479 | 9.75029 | 35064 ft | 458 kts | 105° |
| 2026-05-08 11:41 | 47.38214 | 9.84251 | 35062 ft | 458 kts | 105° |
| 2026-05-08 11:41 | 47.36934 | 9.93441 | 35042 ft | 458 kts | 106° |
| 2026-05-08 11:42 | 47.35636 | 10.02643 | 35041 ft | 458 kts | 107° |
| 2026-05-08 11:42 | 47.34342 | 10.11779 | 35048 ft | 459 kts | 107° |
| 2026-05-08 11:43 | 47.33034 | 10.20994 | 35050 ft | 459 kts | 107° |
| 2026-05-08 11:43 | 47.31720 | 10.30185 | 35051 ft | 458 kts | 107° |
| 2026-05-08 11:44 | 47.30398 | 10.39376 | 35057 ft | 459 kts | 107° |
| 2026-05-08 11:44 | 47.29066 | 10.48567 | 35046 ft | 459 kts | 107° |
| 2026-05-08 11:45 | 47.27727 | 10.57762 | 35040 ft | 459 kts | 107° |
| 2026-05-08 11:45 | 47.26384 | 10.66956 | 35041 ft | 459 kts | 107° |
| 2026-05-08 11:46 | 47.25030 | 10.76145 | 35040 ft | 460 kts | 108° |
| 2026-05-08 11:46 | 47.23665 | 10.85345 | 35026 ft | 460 kts | 108° |
| 2026-05-08 11:47 | 47.22292 | 10.94549 | 35027 ft | 461 kts | 108° |
| 2026-05-08 11:47 | 47.20910 | 11.03748 | 35034 ft | 461 kts | 108° |
| 2026-05-08 11:48 | 47.19529 | 11.12946 | 35038 ft | 461 kts | 107° |
| 2026-05-08 11:48 | 47.18136 | 11.22156 | 35010 ft | 461 kts | 108° |
| 2026-05-08 11:49 | 47.16743 | 11.31297 | 35010 ft | 462 kts | 108° |
| 2026-05-08 11:49 | 47.15323 | 11.40555 | 35016 ft | 461 kts | 108° |
| 2026-05-08 11:50 | 47.13900 | 11.49745 | 35020 ft | 462 kts | 108° |
| 2026-05-08 11:50 | 47.12476 | 11.58878 | 35033 ft | 462 kts | 108° |
| 2026-05-08 11:51 | 47.11044 | 11.68068 | 35023 ft | 462 kts | 108° |
| 2026-05-08 11:51 | 47.09606 | 11.77217 | 35038 ft | 462 kts | 108° |
| 2026-05-08 11:52 | 47.08072 | 11.86341 | 35055 ft | 460 kts | 114° |
| 2026-05-08 11:52 | 47.05444 | 11.94902 | 35058 ft | 464 kts | 122° |
| 2026-05-08 11:53 | 47.02556 | 12.03475 | 35061 ft | 473 kts | 122° |
| 2026-05-08 11:53 | 46.99651 | 12.12152 | 35062 ft | 475 kts | 122° |
| 2026-05-08 11:54 | 46.96744 | 12.20819 | 35081 ft | 475 kts | 122° |
| 2026-05-08 11:54 | 46.93822 | 12.29493 | 35086 ft | 474 kts | 122° |
| 2026-05-08 11:55 | 46.90895 | 12.38123 | 35065 ft | 473 kts | 122° |
| 2026-05-08 11:55 | 46.87963 | 12.46738 | 35075 ft | 472 kts | 122° |
| 2026-05-08 11:56 | 46.85127 | 12.55052 | 35076 ft | 472 kts | 122° |
| 2026-05-08 11:56 | 46.82191 | 12.63641 | 35074 ft | 473 kts | 122° |
| 2026-05-08 11:57 | 46.79247 | 12.72217 | 35052 ft | 473 kts | 122° |
| 2026-05-08 11:57 | 46.76791 | 12.79338 | 35048 ft | 473 kts | 122° |
| 2026-05-08 11:58 | 46.73361 | 12.89268 | 35051 ft | 474 kts | 122° |
| 2026-05-08 11:58 | 46.70405 | 12.97804 | 35043 ft | 474 kts | 122° |
| 2026-05-08 11:59 | 46.66464 | 13.09153 | 35041 ft | 475 kts | 122° |
| 2026-05-08 11:59 | 46.63478 | 13.17701 | 35060 ft | 474 kts | 122° |
| 2026-05-08 12:00 | 46.60549 | 13.26061 | 35058 ft | 473 kts | 122° |
| 2026-05-08 12:00 | 46.57615 | 13.34389 | 35069 ft | 472 kts | 123° |
| 2026-05-08 12:01 | 46.53831 | 13.41947 | 35079 ft | 460 kts | 138° |
| 2026-05-08 12:01 | 46.49463 | 13.48730 | 35075 ft | 459 kts | 138° |
| 2026-05-08 12:02 | 46.45124 | 13.55508 | 35078 ft | 460 kts | 137° |
| 2026-05-08 12:02 | 46.40777 | 13.62301 | 35084 ft | 460 kts | 138° |
| 2026-05-08 12:03 | 46.36436 | 13.69059 | 35079 ft | 460 kts | 138° |
| 2026-05-08 12:03 | 46.32065 | 13.75816 | 35057 ft | 460 kts | 139° |
| 2026-05-08 12:04 | 46.27913 | 13.82228 | 35055 ft | 461 kts | 139° |
| 2026-05-08 12:04 | 46.23542 | 13.88976 | 35055 ft | 461 kts | 139° |
| 2026-05-08 12:05 | 46.19151 | 13.95732 | 35059 ft | 462 kts | 139° |
| 2026-05-08 12:05 | 46.14757 | 14.02484 | 35062 ft | 462 kts | 139° |
| 2026-05-08 12:06 | 46.10352 | 14.09227 | 35053 ft | 462 kts | 139° |
| 2026-05-08 12:06 | 46.05941 | 14.15959 | 35067 ft | 462 kts | 139° |
| 2026-05-08 12:07 | 46.01558 | 14.22643 | 35078 ft | 462 kts | 139° |
| 2026-05-08 12:07 | 45.97147 | 14.29344 | 35080 ft | 461 kts | 139° |
| 2026-05-08 12:08 | 45.92741 | 14.36024 | 35075 ft | 460 kts | 139° |
| 2026-05-08 12:08 | 45.88324 | 14.42700 | 35069 ft | 461 kts | 139° |
| 2026-05-08 12:09 | 45.83900 | 14.49365 | 35066 ft | 461 kts | 139° |
| 2026-05-08 12:09 | 45.79481 | 14.56015 | 35068 ft | 461 kts | 139° |
| 2026-05-08 12:10 | 45.75048 | 14.62670 | 35073 ft | 461 kts | 139° |
| 2026-05-08 12:10 | 45.70611 | 14.69315 | 35068 ft | 462 kts | 139° |
| 2026-05-08 12:11 | 45.66184 | 14.75921 | 35070 ft | 462 kts | 139° |
| 2026-05-08 12:11 | 45.61767 | 14.82503 | 35070 ft | 462 kts | 139° |
| 2026-05-08 12:12 | 45.57336 | 14.89100 | 35061 ft | 462 kts | 139° |
| 2026-05-08 12:12 | 45.52971 | 14.95581 | 35063 ft | 462 kts | 139° |
| 2026-05-08 12:13 | 45.48524 | 15.02147 | 35066 ft | 460 kts | 139° |
| 2026-05-08 12:13 | 45.44232 | 15.08359 | 35070 ft | 460 kts | 140° |
| 2026-05-08 12:14 | 45.39860 | 15.14600 | 35077 ft | 460 kts | 140° |
| 2026-05-08 12:14 | 45.35410 | 15.20960 | 35078 ft | 460 kts | 140° |
| 2026-05-08 12:15 | 45.30921 | 15.27377 | 35084 ft | 459 kts | 140° |
| 2026-05-08 12:15 | 45.26506 | 15.33679 | 35087 ft | 459 kts | 140° |
| 2026-05-08 12:16 | 45.22193 | 15.39825 | 35088 ft | 459 kts | 140° |
| 2026-05-08 12:16 | 45.17715 | 15.46185 | 35082 ft | 459 kts | 140° |
| 2026-05-08 12:17 | 45.13222 | 15.52544 | 35081 ft | 458 kts | 140° |
| 2026-05-08 12:17 | 45.08734 | 15.58878 | 35062 ft | 458 kts | 140° |
| 2026-05-08 12:18 | 45.04253 | 15.65192 | 35065 ft | 458 kts | 140° |
| 2026-05-08 12:18 | 44.99827 | 15.71436 | 35067 ft | 458 kts | 140° |
| 2026-05-08 12:19 | 44.95386 | 15.77679 | 35068 ft | 458 kts | 140° |
| 2026-05-08 12:19 | 44.90900 | 15.83953 | 35058 ft | 458 kts | 140° |
| 2026-05-08 12:20 | 44.86384 | 15.90261 | 35056 ft | 458 kts | 140° |
| 2026-05-08 12:20 | 44.81879 | 15.96537 | 35051 ft | 458 kts | 140° |
| 2026-05-08 12:21 | 44.77499 | 16.02629 | 35059 ft | 458 kts | 140° |
| 2026-05-08 12:21 | 44.72977 | 16.08901 | 35061 ft | 458 kts | 140° |
| 2026-05-08 12:22 | 44.68445 | 16.15165 | 35051 ft | 458 kts | 140° |
| 2026-05-08 12:22 | 44.63918 | 16.21417 | 35055 ft | 458 kts | 140° |
| 2026-05-08 12:23 | 44.59412 | 16.27636 | 35049 ft | 459 kts | 140° |
| 2026-05-08 12:23 | 44.54882 | 16.33865 | 35056 ft | 458 kts | 140° |
| 2026-05-08 12:24 | 44.50511 | 16.39856 | 35049 ft | 458 kts | 140° |
| 2026-05-08 12:24 | 44.46046 | 16.45981 | 35054 ft | 457 kts | 140° |
| 2026-05-08 12:25 | 44.41523 | 16.52157 | 35063 ft | 457 kts | 140° |
| 2026-05-08 12:25 | 44.36986 | 16.58341 | 35066 ft | 457 kts | 140° |
| 2026-05-08 12:26 | 44.32534 | 16.64384 | 35066 ft | 456 kts | 140° |
| 2026-05-08 12:26 | 44.28009 | 16.70519 | 35046 ft | 455 kts | 140° |
| 2026-05-08 12:27 | 44.23464 | 16.76669 | 35051 ft | 455 kts | 140° |
| 2026-05-08 12:27 | 44.18917 | 16.82812 | 35058 ft | 455 kts | 140° |
| 2026-05-08 12:28 | 44.14371 | 16.88933 | 35053 ft | 455 kts | 140° |
| 2026-05-08 12:28 | 44.09819 | 16.95042 | 35021 ft | 455 kts | 140° |
| 2026-05-08 12:29 | 44.05260 | 17.01149 | 35034 ft | 455 kts | 140° |
| 2026-05-08 12:29 | 44.00698 | 17.07270 | 35030 ft | 456 kts | 140° |
| 2026-05-08 12:30 | 43.96128 | 17.13377 | 35041 ft | 456 kts | 140° |
| 2026-05-08 12:30 | 43.91550 | 17.19460 | 35019 ft | 456 kts | 140° |
| 2026-05-08 12:31 | 43.86971 | 17.25543 | 35047 ft | 455 kts | 139° |
| 2026-05-08 12:31 | 43.82427 | 17.31572 | 35050 ft | 455 kts | 139° |
| 2026-05-08 12:32 | 43.77855 | 17.37618 | 35050 ft | 455 kts | 140° |
| 2026-05-08 12:32 | 43.73275 | 17.43664 | 35050 ft | 455 kts | 140° |
| 2026-05-08 12:33 | 43.68698 | 17.49693 | 35043 ft | 454 kts | 139° |
| 2026-05-08 12:33 | 43.64120 | 17.55720 | 35048 ft | 454 kts | 139° |
| 2026-05-08 12:34 | 43.59538 | 17.61721 | 35040 ft | 454 kts | 140° |
| 2026-05-08 12:34 | 43.54838 | 17.67482 | 35042 ft | 450 kts | 148° |
| 2026-05-08 12:35 | 43.49691 | 17.72397 | 35046 ft | 450 kts | 148° |
| 2026-05-08 12:35 | 43.44549 | 17.77292 | 35036 ft | 450 kts | 148° |
| 2026-05-08 12:36 | 43.39396 | 17.82193 | 34999 ft | 451 kts | 148° |
| 2026-05-08 12:36 | 43.34241 | 17.87103 | 34994 ft | 451 kts | 148° |
| 2026-05-08 12:37 | 43.29080 | 17.92006 | 34992 ft | 451 kts | 148° |
| 2026-05-08 12:37 | 43.23915 | 17.96897 | 34996 ft | 451 kts | 148° |
| 2026-05-08 12:38 | 43.18753 | 18.01775 | 35005 ft | 451 kts | 148° |
| 2026-05-08 12:38 | 43.13579 | 18.06645 | 35006 ft | 451 kts | 148° |
| 2026-05-08 12:39 | 43.08407 | 18.11507 | 35018 ft | 451 kts | 148° |
| 2026-05-08 12:39 | 43.03258 | 18.16346 | 35027 ft | 452 kts | 148° |
| 2026-05-08 12:40 | 42.98073 | 18.21196 | 35031 ft | 452 kts | 148° |
| 2026-05-08 12:40 | 42.92882 | 18.26044 | 35031 ft | 452 kts | 148° |
| 2026-05-08 12:41 | 42.87699 | 18.30891 | 35035 ft | 452 kts | 148° |
| 2026-05-08 12:41 | 42.82509 | 18.35728 | 35039 ft | 452 kts | 148° |
| 2026-05-08 12:42 | 42.77328 | 18.40545 | 35043 ft | 452 kts | 148° |
| 2026-05-08 12:42 | 42.72133 | 18.45358 | 35032 ft | 452 kts | 148° |
| 2026-05-08 12:43 | 42.66934 | 18.50161 | 35034 ft | 452 kts | 148° |
| 2026-05-08 12:43 | 42.61761 | 18.54938 | 35035 ft | 452 kts | 148° |
| 2026-05-08 12:44 | 42.56562 | 18.59742 | 35018 ft | 452 kts | 148° |
| 2026-05-08 12:44 | 42.51353 | 18.64535 | 35021 ft | 452 kts | 148° |
| 2026-05-08 12:45 | 42.46157 | 18.69296 | 35018 ft | 452 kts | 148° |
| 2026-05-08 12:45 | 42.40978 | 18.74038 | 35019 ft | 453 kts | 148° |
| 2026-05-08 12:46 | 42.35771 | 18.78800 | 34994 ft | 453 kts | 148° |
| 2026-05-08 12:46 | 42.30499 | 18.83605 | 34995 ft | 455 kts | 148° |
| 2026-05-08 12:47 | 42.25254 | 18.88375 | 34989 ft | 456 kts | 148° |
| 2026-05-08 12:47 | 42.20025 | 18.93129 | 34991 ft | 456 kts | 148° |
| 2026-05-08 12:48 | 42.14760 | 18.97906 | 34996 ft | 456 kts | 148° |
| 2026-05-08 12:48 | 42.09498 | 19.02659 | 35000 ft | 457 kts | 148° |
| 2026-05-08 12:49 | 42.05070 | 19.06651 | 35008 ft | 457 kts | 148° |
| 2026-05-08 12:49 | 41.99790 | 19.11421 | 35003 ft | 457 kts | 148° |
| 2026-05-08 12:50 | 41.94499 | 19.16186 | 34993 ft | 458 kts | 148° |
| 2026-05-08 12:50 | 41.89238 | 19.20905 | 34999 ft | 458 kts | 148° |
| 2026-05-08 12:51 | 41.81282 | 19.28019 | 34995 ft | 458 kts | 148° |
| 2026-05-08 12:52 | 41.75956 | 19.32717 | 34994 ft | 458 kts | 150° |
| 2026-05-08 12:52 | 41.67703 | 19.39122 | 35003 ft | 457 kts | 153° |
| 2026-05-08 12:53 | 41.62157 | 19.43257 | 34997 ft | 457 kts | 152° |
| 2026-05-08 12:53 | 41.56636 | 19.47472 | 34984 ft | 457 kts | 152° |
| 2026-05-08 12:54 | 41.51144 | 19.51720 | 34980 ft | 458 kts | 152° |
| 2026-05-08 12:54 | 41.45623 | 19.55977 | 34972 ft | 459 kts | 152° |
| 2026-05-08 12:55 | 41.40086 | 19.60218 | 34974 ft | 459 kts | 152° |
| 2026-05-08 12:55 | 41.34548 | 19.64445 | 34977 ft | 459 kts | 152° |
| 2026-05-08 12:56 | 41.29003 | 19.68665 | 34964 ft | 460 kts | 152° |
| 2026-05-08 12:56 | 41.23450 | 19.72891 | 34981 ft | 460 kts | 152° |
| 2026-05-08 12:57 | 41.17892 | 19.77115 | 34978 ft | 460 kts | 152° |
| 2026-05-08 12:57 | 41.12324 | 19.81323 | 34969 ft | 461 kts | 152° |
| 2026-05-08 12:58 | 41.06790 | 19.85517 | 34960 ft | 462 kts | 152° |
| 2026-05-08 12:58 | 41.01171 | 19.89768 | 34955 ft | 462 kts | 152° |
| 2026-05-08 12:59 | 40.95583 | 19.93981 | 34966 ft | 462 kts | 152° |
| 2026-05-08 12:59 | 40.90029 | 19.98162 | 34962 ft | 463 kts | 152° |
| 2026-05-08 13:00 | 40.84433 | 20.02357 | 34963 ft | 463 kts | 152° |
| 2026-05-08 13:00 | 40.78827 | 20.06554 | 34958 ft | 463 kts | 152° |
| 2026-05-08 13:01 | 40.73217 | 20.10743 | 34972 ft | 464 kts | 152° |
| 2026-05-08 13:01 | 40.67598 | 20.14944 | 34969 ft | 464 kts | 153° |
| 2026-05-08 13:02 | 40.61974 | 20.19138 | 34972 ft | 465 kts | 153° |
| 2026-05-08 13:02 | 40.56341 | 20.23316 | 34985 ft | 466 kts | 153° |
| 2026-05-08 13:03 | 40.50690 | 20.27500 | 34987 ft | 467 kts | 153° |
| 2026-05-08 13:03 | 40.45037 | 20.31683 | 34992 ft | 467 kts | 153° |
| 2026-05-08 13:04 | 40.39409 | 20.35844 | 35009 ft | 468 kts | 153° |
| 2026-05-08 13:04 | 40.33733 | 20.40029 | 35007 ft | 469 kts | 154° |
| 2026-05-08 13:05 | 40.28052 | 20.44215 | 35008 ft | 470 kts | 154° |
| 2026-05-08 13:05 | 40.22345 | 20.48418 | 35004 ft | 471 kts | 155° |
| 2026-05-08 13:06 | 40.16614 | 20.52622 | 35017 ft | 473 kts | 155° |
| 2026-05-08 13:06 | 40.10867 | 20.56815 | 35011 ft | 473 kts | 156° |
| 2026-05-08 13:07 | 40.05086 | 20.60937 | 35026 ft | 473 kts | 158° |
| 2026-05-08 13:07 | 39.99162 | 20.64623 | 35039 ft | 471 kts | 161° |
| 2026-05-08 13:08 | 39.93170 | 20.68113 | 35042 ft | 472 kts | 161° |
| 2026-05-08 13:08 | 39.87183 | 20.71657 | 35016 ft | 473 kts | 161° |
| 2026-05-08 13:09 | 39.81210 | 20.75293 | 35025 ft | 475 kts | 161° |
| 2026-05-08 13:09 | 39.75262 | 20.78935 | 35030 ft | 476 kts | 161° |
| 2026-05-08 13:10 | 39.69228 | 20.82608 | 35020 ft | 476 kts | 161° |
| 2026-05-08 13:10 | 39.63388 | 20.86462 | 35009 ft | 479 kts | 159° |
| 2026-05-08 13:11 | 39.57525 | 20.90597 | 35034 ft | 480 kts | 159° |
| 2026-05-08 13:11 | 39.51642 | 20.94708 | 35040 ft | 480 kts | 159° |
| 2026-05-08 13:12 | 39.45739 | 20.98740 | 35050 ft | 480 kts | 160° |
| 2026-05-08 13:12 | 39.39820 | 21.02742 | 35025 ft | 480 kts | 160° |
| 2026-05-08 13:13 | 39.33897 | 21.06741 | 35047 ft | 480 kts | 160° |
| 2026-05-08 13:13 | 39.27991 | 21.10736 | 35050 ft | 480 kts | 160° |
| 2026-05-08 13:14 | 39.22066 | 21.14743 | 35036 ft | 480 kts | 160° |
| 2026-05-08 13:14 | 39.16158 | 21.18737 | 35040 ft | 479 kts | 160° |
| 2026-05-08 13:15 | 39.10237 | 21.22717 | 35027 ft | 480 kts | 161° |
| 2026-05-08 13:15 | 39.04362 | 21.26669 | 35038 ft | 479 kts | 161° |
| 2026-05-08 13:16 | 38.98453 | 21.30642 | 35052 ft | 479 kts | 161° |
| 2026-05-08 13:16 | 38.92536 | 21.34607 | 35053 ft | 479 kts | 161° |
| 2026-05-08 13:17 | 38.86614 | 21.38553 | 35017 ft | 480 kts | 161° |
| 2026-05-08 13:17 | 38.80667 | 21.42512 | 35033 ft | 482 kts | 161° |
| 2026-05-08 13:18 | 38.74717 | 21.46482 | 35037 ft | 482 kts | 161° |
| 2026-05-08 13:18 | 38.68788 | 21.50414 | 35038 ft | 482 kts | 161° |
| 2026-05-08 13:19 | 38.62824 | 21.54372 | 35041 ft | 483 kts | 161° |
| 2026-05-08 13:19 | 38.56862 | 21.58332 | 35044 ft | 483 kts | 161° |
| 2026-05-08 13:20 | 38.50891 | 21.62287 | 35046 ft | 483 kts | 161° |
| 2026-05-08 13:20 | 38.44915 | 21.66220 | 35049 ft | 484 kts | 161° |
| 2026-05-08 13:21 | 38.38933 | 21.70148 | 35017 ft | 484 kts | 161° |
| 2026-05-08 13:21 | 38.32946 | 21.74095 | 35029 ft | 485 kts | 161° |
| 2026-05-08 13:22 | 38.26957 | 21.78027 | 35035 ft | 485 kts | 161° |
| 2026-05-08 13:22 | 38.20955 | 21.81949 | 35034 ft | 485 kts | 161° |
| 2026-05-08 13:23 | 38.14958 | 21.85867 | 35014 ft | 484 kts | 161° |
| 2026-05-08 13:23 | 38.08972 | 21.89774 | 35044 ft | 483 kts | 161° |
| 2026-05-08 13:24 | 38.02994 | 21.93670 | 35056 ft | 483 kts | 161° |
| 2026-05-08 13:24 | 37.97014 | 21.97560 | 35062 ft | 483 kts | 161° |
| 2026-05-08 13:25 | 37.91030 | 22.01434 | 35067 ft | 483 kts | 161° |
| 2026-05-08 13:25 | 37.85044 | 22.05308 | 35040 ft | 483 kts | 160° |
| 2026-05-08 13:26 | 37.79057 | 22.09182 | 35056 ft | 483 kts | 160° |
| 2026-05-08 13:26 | 37.73070 | 22.13047 | 35034 ft | 483 kts | 161° |
| 2026-05-08 13:27 | 37.67082 | 22.16903 | 35051 ft | 483 kts | 160° |
| 2026-05-08 13:27 | 37.61096 | 22.20750 | 35049 ft | 482 kts | 160° |
| 2026-05-08 13:28 | 37.55155 | 22.24572 | 35068 ft | 482 kts | 160° |
| 2026-05-08 13:28 | 37.49179 | 22.28398 | 35084 ft | 482 kts | 160° |
| 2026-05-08 13:29 | 37.43210 | 22.32213 | 35086 ft | 481 kts | 160° |
| 2026-05-08 13:29 | 37.37235 | 22.36025 | 35072 ft | 481 kts | 160° |
| 2026-05-08 13:30 | 37.31257 | 22.39808 | 35082 ft | 481 kts | 161° |
| 2026-05-08 13:30 | 37.25279 | 22.43576 | 35089 ft | 481 kts | 160° |
| 2026-05-08 13:31 | 37.19309 | 22.47349 | 35071 ft | 481 kts | 160° |
| 2026-05-08 13:31 | 37.13342 | 22.51134 | 35060 ft | 480 kts | 160° |
| 2026-05-08 13:32 | 37.07391 | 22.54892 | 35095 ft | 479 kts | 160° |
| 2026-05-08 13:32 | 37.01449 | 22.58628 | 35106 ft | 478 kts | 160° |
| 2026-05-08 13:33 | 36.95522 | 22.62349 | 35112 ft | 478 kts | 160° |
| 2026-05-08 13:33 | 36.89601 | 22.66057 | 35112 ft | 477 kts | 161° |
| 2026-05-08 13:34 | 36.83679 | 22.69765 | 35094 ft | 477 kts | 161° |
| 2026-05-08 13:34 | 36.77749 | 22.73472 | 35096 ft | 477 kts | 161° |
| 2026-05-08 13:35 | 36.71806 | 22.77171 | 35095 ft | 477 kts | 161° |
| 2026-05-08 13:35 | 36.65865 | 22.80867 | 35086 ft | 478 kts | 161° |
| 2026-05-08 13:36 | 36.59908 | 22.84563 | 35064 ft | 479 kts | 161° |
| 2026-05-08 13:36 | 36.53982 | 22.88232 | 35069 ft | 479 kts | 161° |
| 2026-05-08 13:37 | 36.48008 | 22.91938 | 35071 ft | 480 kts | 161° |
| 2026-05-08 13:37 | 36.41984 | 22.95667 | 35077 ft | 480 kts | 161° |
| 2026-05-08 13:38 | 36.36039 | 22.99336 | 35066 ft | 481 kts | 161° |
| 2026-05-08 13:38 | 36.30046 | 23.03013 | 35071 ft | 481 kts | 161° |
| 2026-05-08 13:39 | 36.24047 | 23.06700 | 35075 ft | 481 kts | 161° |
| 2026-05-08 13:39 | 36.18050 | 23.10395 | 35079 ft | 481 kts | 161° |
| 2026-05-08 13:40 | 36.13057 | 23.13455 | 35070 ft | 482 kts | 161° |
| 2026-05-08 13:40 | 36.10128 | 23.15656 | 34719 ft | 494 kts | 148° |
| 2026-05-08 13:40 | 36.07729 | 23.18706 | 33749 ft | 512 kts | 131° |
| 2026-05-08 13:41 | 36.05705 | 23.22355 | 32744 ft | 516 kts | 129° |
| 2026-05-08 13:41 | 36.03731 | 23.26001 | 32482 ft | 502 kts | 129° |
| 2026-05-08 13:41 | 36.01813 | 23.29548 | 32122 ft | 492 kts | 129° |
| 2026-05-08 13:41 | 35.99910 | 23.33027 | 31636 ft | 486 kts | 130° |
| 2026-05-08 13:42 | 35.98021 | 23.36438 | 31125 ft | 481 kts | 130° |
| 2026-05-08 13:42 | 35.96124 | 23.39828 | 30624 ft | 477 kts | 130° |
| 2026-05-08 13:42 | 35.94240 | 23.43171 | 30112 ft | 473 kts | 130° |
| 2026-05-08 13:42 | 35.92368 | 23.46496 | 29521 ft | 469 kts | 130° |
| 2026-05-08 13:43 | 35.90525 | 23.49782 | 28654 ft | 462 kts | 130° |
| 2026-05-08 13:43 | 35.88716 | 23.53018 | 27814 ft | 456 kts | 129° |
| 2026-05-08 13:43 | 35.86928 | 23.56223 | 27003 ft | 450 kts | 129° |
| 2026-05-08 13:43 | 35.85164 | 23.59379 | 26228 ft | 444 kts | 129° |
| 2026-05-08 13:44 | 35.83420 | 23.62487 | 25477 ft | 438 kts | 129° |
| 2026-05-08 13:44 | 35.81698 | 23.65552 | 24751 ft | 433 kts | 128° |
| 2026-05-08 13:44 | 35.79995 | 23.68582 | 24042 ft | 427 kts | 128° |
| 2026-05-08 13:44 | 35.78317 | 23.71563 | 23234 ft | 422 kts | 128° |
| 2026-05-08 13:45 | 35.76655 | 23.74514 | 22360 ft | 416 kts | 128° |
| 2026-05-08 13:45 | 35.75012 | 23.77431 | 21507 ft | 411 kts | 128° |
| 2026-05-08 13:45 | 35.73390 | 23.80308 | 20684 ft | 407 kts | 128° |
| 2026-05-08 13:45 | 35.71803 | 23.83115 | 19906 ft | 404 kts | 128° |
| 2026-05-08 13:46 | 35.70206 | 23.85939 | 19113 ft | 401 kts | 128° |
| 2026-05-08 13:46 | 35.68616 | 23.88747 | 18334 ft | 398 kts | 128° |
| 2026-05-08 13:46 | 35.67040 | 23.91528 | 17497 ft | 395 kts | 128° |
| 2026-05-08 13:46 | 35.65481 | 23.94279 | 16718 ft | 390 kts | 128° |
| 2026-05-08 13:47 | 35.63942 | 23.97000 | 15985 ft | 386 kts | 129° |
| 2026-05-08 13:47 | 35.62423 | 23.99687 | 15276 ft | 381 kts | 129° |
| 2026-05-08 13:47 | 35.60907 | 24.02364 | 14368 ft | 383 kts | 129° |
| 2026-05-08 13:47 | 35.59377 | 24.05057 | 13431 ft | 384 kts | 129° |
| 2026-05-08 13:48 | 35.57897 | 24.07666 | 13256 ft | 360 kts | 129° |
| 2026-05-08 13:48 | 35.56518 | 24.10106 | 13120 ft | 338 kts | 129° |
| 2026-05-08 13:48 | 35.55216 | 24.12404 | 12988 ft | 318 kts | 129° |
| 2026-05-08 13:48 | 35.53987 | 24.14569 | 12838 ft | 300 kts | 130° |
| 2026-05-08 13:49 | 35.52808 | 24.16642 | 12476 ft | 292 kts | 130° |
| 2026-05-08 13:49 | 35.51635 | 24.18650 | 12044 ft | 287 kts | 131° |
| 2026-05-08 13:49 | 35.50445 | 24.20582 | 11585 ft | 283 kts | 132° |
| 2026-05-08 13:49 | 35.49255 | 24.22505 | 11116 ft | 281 kts | 132° |
| 2026-05-08 13:50 | 35.48074 | 24.24397 | 10662 ft | 277 kts | 132° |
| 2026-05-08 13:50 | 35.46902 | 24.26261 | 10204 ft | 274 kts | 132° |
| 2026-05-08 13:50 | 35.45741 | 24.28093 | 9727 ft | 271 kts | 132° |
| 2026-05-08 13:50 | 35.44584 | 24.29903 | 9211 ft | 268 kts | 132° |
| 2026-05-08 13:51 | 35.43435 | 24.31684 | 8696 ft | 265 kts | 132° |
| 2026-05-08 13:51 | 35.42289 | 24.33437 | 8184 ft | 262 kts | 132° |
| 2026-05-08 13:51 | 35.41143 | 24.35161 | 7676 ft | 259 kts | 132° |
| 2026-05-08 13:51 | 35.40001 | 24.36856 | 7190 ft | 257 kts | 132° |
| 2026-05-08 13:52 | 35.38858 | 24.38529 | 6669 ft | 254 kts | 131° |
| 2026-05-08 13:52 | 35.37830 | 24.40238 | 6224 ft | 247 kts | 113° |
| 2026-05-08 13:52 | 35.37536 | 24.42264 | 5755 ft | 242 kts | 79° |
| 2026-05-08 13:52 | 35.38097 | 24.44146 | 5507 ft | 231 kts | 52° |
| 2026-05-08 13:53 | 35.39195 | 24.45482 | 5327 ft | 217 kts | 26° |
| 2026-05-08 13:53 | 35.40560 | 24.46105 | 5148 ft | 205 kts | 3° |
| 2026-05-08 13:53 | 35.41944 | 24.46027 | 4971 ft | 198 kts | 341° |
| 2026-05-08 13:53 | 35.43172 | 24.45331 | 4797 ft | 194 kts | 320° |
| 2026-05-08 13:54 | 35.44088 | 24.44143 | 4614 ft | 192 kts | 299° |
| 2026-05-08 13:54 | 35.44596 | 24.42644 | 4449 ft | 191 kts | 286° |
| 2026-05-08 13:54 | 35.44979 | 24.41108 | 4306 ft | 184 kts | 287° |
| 2026-05-08 13:54 | 35.45344 | 24.39670 | 4121 ft | 176 kts | 287° |
| 2026-05-08 13:55 | 35.45714 | 24.38233 | 3948 ft | 172 kts | 287° |
| 2026-05-08 13:55 | 35.46066 | 24.36867 | 3827 ft | 169 kts | 287° |
| 2026-05-08 13:55 | 35.46772 | 24.34141 | 3520 ft | 169 kts | 289° |
| 2026-05-08 13:56 | 35.47200 | 24.32804 | 3287 ft | 168 kts | 290° |
| 2026-05-08 13:56 | 35.47645 | 24.31480 | 3051 ft | 168 kts | 291° |
| 2026-05-08 13:56 | 35.48092 | 24.30159 | 2831 ft | 168 kts | 290° |
| 2026-05-08 13:56 | 35.48537 | 24.28837 | 2603 ft | 164 kts | 291° |
| 2026-05-08 13:57 | 35.48956 | 24.27594 | 2379 ft | 152 kts | 290° |
| 2026-05-08 13:57 | 35.49351 | 24.26417 | 2177 ft | 147 kts | 290° |
| 2026-05-08 13:57 | 35.49738 | 24.25257 | 1979 ft | 147 kts | 290° |
| 2026-05-08 13:57 | 35.50125 | 24.24093 | 1782 ft | 147 kts | 289° |
| 2026-05-08 13:58 | 35.50534 | 24.22943 | 1576 ft | 148 kts | 295° |
| 2026-05-08 13:58 | 35.50995 | 24.21808 | 1394 ft | 149 kts | 291° |
| 2026-05-08 13:58 | 35.51372 | 24.20621 | 1173 ft | 150 kts | 286° |
| 2026-05-08 13:58 | 35.51727 | 24.19415 | 975 ft | 151 kts | 291° |
| 2026-05-08 13:59 | 35.52119 | 24.18227 | 781 ft | 150 kts | 291° |
| 2026-05-08 13:59 | 35.52499 | 24.17045 | 594 ft | 148 kts | 291° |
| 2026-05-08 13:59 | 35.52866 | 24.15916 | 493 ft | 126 kts | 291° |
| 2026-05-08 13:59 | 35.53126 | 24.15117 | 490 ft | 76 kts | 291° |
| 2026-05-08 14:00 | 35.53266 | 24.14683 | 488 ft | 43 kts | 292° |